Hauptseite
METAR-TAF:

METAR-TAF

Flughäfen :

Andora, Italien

Capo Mele

Breite: 43-57N, Länge: 008-10E, Höhe: 220 m

Beobachtung

Neuester Wetterbericht von vor 58 Minuten, um 20:55 UTC
Wind 35 kt aus Süd/Südost
Temperatur 2°C
Luftfeuchtigkeit 64%
Luftdruck 1006 hPa
Sichtweite 10 km oder mehr
Aufgelockert bewölkt in der Höhe von 2800 ft

METAR: LIMU 252055Z 15035KT 9999 SCT028 02/M04 Q1006 RMK OVC SCT060 QUK / QUL / VIS MAR 15 KM VIS MIN 9999

Zeit: 22:53 (21:53 UTC)


TAF: fehlend

Wetterbeobachtungen und Prognosen von mehr als 4000 Flughäfen (METAR und TAF Bericht).

Die verfügbaren Stationen werden durch gelbe und rote Markierungen auf der Karte dargestellt.

Führen Sie die Maus auf sie, um den Namen der Station zu sehen.

Darauf klicken, um die Beobachtung von Wetterbeobachtungen und Prognosen zu sehen.

Um die Karte zu ändern : klicken Sie auf den grünen Tasten mit einem schwarzen Kreuz Zum Vergrößern, auf den grünen Button mit einem Gedankenstrich zu verkleinern, oder auf die grünen Pfeile für benachbarte Karten.


METAR-TAF: